sensor_id;sensor_type;location;lat;lon;timestamp;P1;P2;P0
72854;PMS7003;60991;51.278;22.550;2023-03-17T00:01:12;84.67;64.33;34.33
72854;PMS7003;60991;51.278;22.550;2023-03-17T00:02:44;94.00;70.50;43.00
72854;PMS7003;60991;51.278;22.550;2023-03-17T00:04:17;96.75;71.75;44.50
72854;PMS7003;60991;51.278;22.550;2023-03-17T00:05:48;97.75;71.00;43.00
72854;PMS7003;60991;51.278;22.550;2023-03-17T00:07:18;90.50;68.75;42.25
72854;PMS7003;60991;51.278;22.550;2023-03-17T00:08:49;92.50;71.50;43.00
72854;PMS7003;60991;51.278;22.550;2023-03-17T00:11:51;99.75;78.00;44.25
72854;PMS7003;60991;51.278;22.550;2023-03-17T00:13:21;97.67;74.00;46.00
72854;PMS7003;60991;51.278;22.550;2023-03-17T00:14:52;99.75;76.25;46.00
72854;PMS7003;60991;51.278;22.550;2023-03-17T00:16:23;94.33;72.33;46.33
72854;PMS7003;60991;51.278;22.550;2023-03-17T00:17:55;85.75;68.00;44.25
72854;PMS7003;60991;51.278;22.550;2023-03-17T00:19:29;91.75;69.25;42.50
72854;PMS7003;60991;51.278;22.550;2023-03-17T00:21:02;99.50;74.00;44.25
72854;PMS7003;60991;51.278;22.550;2023-03-17T00:22:32;94.25;71.00;41.50
72854;PMS7003;60991;51.278;22.550;2023-03-17T00:24:02;98.67;73.33;42.00
72854;PMS7003;60991;51.278;22.550;2023-03-17T00:25:33;84.75;68.25;41.25
72854;PMS7003;60991;51.278;22.550;2023-03-17T00:27:08;91.00;70.50;43.25
72854;PMS7003;60991;51.278;22.550;2023-03-17T00:28:39;88.75;67.75;42.75
72854;PMS7003;60991;51.278;22.550;2023-03-17T00:30:10;90.50;69.00;40.75
72854;PMS7003;60991;51.278;22.550;2023-03-17T00:31:41;90.75;68.75;42.50
72854;PMS7003;60991;51.278;22.550;2023-03-17T00:33:13;95.00;71.25;42.75
72854;PMS7003;60991;51.278;22.550;2023-03-17T00:34:45;88.25;67.75;42.50
72854;PMS7003;60991;51.278;22.550;2023-03-17T00:36:16;90.25;69.00;42.50
72854;PMS7003;60991;51.278;22.550;2023-03-17T00:37:49;98.25;72.00;42.50
72854;PMS7003;60991;51.278;22.550;2023-03-17T00:39:21;95.00;71.50;43.00
72854;PMS7003;60991;51.278;22.550;2023-03-17T00:40:52;91.00;69.00;39.00
72854;PMS7003;60991;51.278;22.550;2023-03-17T00:42:22;93.50;69.75;42.00
72854;PMS7003;60991;51.278;22.550;2023-03-17T00:43:52;97.33;70.33;42.67
72854;PMS7003;60991;51.278;22.550;2023-03-17T00:45:23;87.25;68.75;39.75
72854;PMS7003;60991;51.278;22.550;2023-03-17T00:46:54;97.75;70.75;43.25
72854;PMS7003;60991;51.278;22.550;2023-03-17T00:48:25;92.00;69.00;42.33
72854;PMS7003;60991;51.278;22.550;2023-03-17T00:49:57;95.50;68.25;42.00
72854;PMS7003;60991;51.278;22.550;2023-03-17T00:51:27;89.33;71.33;43.00
72854;PMS7003;60991;51.278;22.550;2023-03-17T00:52:57;87.75;66.50;43.25
72854;PMS7003;60991;51.278;22.550;2023-03-17T00:54:27;92.00;70.33;39.67
72854;PMS7003;60991;51.278;22.550;2023-03-17T00:55:58;90.67;67.33;41.00
72854;PMS7003;60991;51.278;22.550;2023-03-17T00:57:28;93.67;72.00;42.33
72854;PMS7003;60991;51.278;22.550;2023-03-17T00:58:58;89.33;67.67;40.33
72854;PMS7003;60991;51.278;22.550;2023-03-17T01:00:28;94.33;72.33;43.33
72854;PMS7003;60991;51.278;22.550;2023-03-17T01:01:58;96.33;68.67;43.00
72854;PMS7003;60991;51.278;22.550;2023-03-17T01:03:29;78.67;65.67;41.67
72854;PMS7003;60991;51.278;22.550;2023-03-17T01:04:59;88.33;68.67;40.33
72854;PMS7003;60991;51.278;22.550;2023-03-17T01:06:29;87.67;67.00;41.00
72854;PMS7003;60991;51.278;22.550;2023-03-17T01:07:59;91.67;71.33;43.33
72854;PMS7003;60991;51.278;22.550;2023-03-17T01:09:29;89.67;70.33;42.33
72854;PMS7003;60991;51.278;22.550;2023-03-17T01:11:00;92.50;70.75;43.00
72854;PMS7003;60991;51.278;22.550;2023-03-17T01:12:31;85.25;65.00;39.25
72854;PMS7003;60991;51.278;22.550;2023-03-17T01:14:01;86.67;67.67;41.00
72854;PMS7003;60991;51.278;22.550;2023-03-17T01:15:32;88.33;68.00;43.33
72854;PMS7003;60991;51.278;22.550;2023-03-17T01:17:04;82.00;64.50;41.75
72854;PMS7003;60991;51.278;22.550;2023-03-17T01:18:40;83.50;63.50;41.00
72854;PMS7003;60991;51.278;22.550;2023-03-17T01:20:20;96.00;73.00;42.67
72854;PMS7003;60991;51.278;22.550;2023-03-17T01:21:53;88.00;66.25;38.00
72854;PMS7003;60991;51.278;22.550;2023-03-17T01:23:23;92.33;68.67;40.67
72854;PMS7003;60991;51.278;22.550;2023-03-17T01:24:53;91.00;67.33;39.33
72854;PMS7003;60991;51.278;22.550;2023-03-17T01:26:23;88.33;69.67;41.33
72854;PMS7003;60991;51.278;22.550;2023-03-17T01:27:54;90.67;72.00;42.33
72854;PMS7003;60991;51.278;22.550;2023-03-17T01:29:26;88.50;68.50;43.00
72854;PMS7003;60991;51.278;22.550;2023-03-17T01:30:56;85.00;65.25;39.25
72854;PMS7003;60991;51.278;22.550;2023-03-17T01:32:27;92.33;70.33;41.00
72854;PMS7003;60991;51.278;22.550;2023-03-17T01:33:57;88.00;66.00;39.67
72854;PMS7003;60991;51.278;22.550;2023-03-17T01:35:27;84.67;62.67;41.00
72854;PMS7003;60991;51.278;22.550;2023-03-17T01:36:58;91.75;65.00;39.25
72854;PMS7003;60991;51.278;22.550;2023-03-17T01:38:28;83.33;66.33;40.67
72854;PMS7003;60991;51.278;22.550;2023-03-17T01:39:58;96.00;67.67;41.67
72854;PMS7003;60991;51.278;22.550;2023-03-17T01:41:31;92.33;69.00;41.67
72854;PMS7003;60991;51.278;22.550;2023-03-17T01:44:54;97.50;69.00;41.75
72854;PMS7003;60991;51.278;22.550;2023-03-17T01:48:00;88.50;67.50;39.25
72854;PMS7003;60991;51.278;22.550;2023-03-17T01:49:30;89.33;68.00;41.33
72854;PMS7003;60991;51.278;22.550;2023-03-17T01:51:04;96.75;72.00;41.50
72854;PMS7003;60991;51.278;22.550;2023-03-17T01:52:37;87.00;66.75;41.25
72854;PMS7003;60991;51.278;22.550;2023-03-17T01:54:31;95.50;70.00;40.75
72854;PMS7003;60991;51.278;22.550;2023-03-17T01:56:03;89.50;69.75;43.50
72854;PMS7003;60991;51.278;22.550;2023-03-17T01:57:35;89.50;67.75;41.50
72854;PMS7003;60991;51.278;22.550;2023-03-17T01:59:10;94.00;71.00;43.00
72854;PMS7003;60991;51.278;22.550;2023-03-17T02:00:47;100.50;75.25;44.00
72854;PMS7003;60991;51.278;22.550;2023-03-17T02:02:19;84.25;62.50;43.00
72854;PMS7003;60991;51.278;22.550;2023-03-17T02:03:52;92.00;69.50;44.00
72854;PMS7003;60991;51.278;22.550;2023-03-17T02:05:28;96.75;71.25;43.00
72854;PMS7003;60991;51.278;22.550;2023-03-17T02:06:59;116.75;94.50;51.25
72854;PMS7003;60991;51.278;22.550;2023-03-17T02:08:32;94.50;68.25;44.25
72854;PMS7003;60991;51.278;22.550;2023-03-17T02:10:03;110.33;85.33;47.00
72854;PMS7003;60991;51.278;22.550;2023-03-17T02:11:34;110.50;91.75;49.25
72854;PMS7003;60991;51.278;22.550;2023-03-17T02:13:05;115.75;97.50;51.25
72854;PMS7003;60991;51.278;22.550;2023-03-17T02:14:37;112.25;93.00;52.50
72854;PMS7003;60991;51.278;22.550;2023-03-17T02:16:11;102.00;73.50;27.75
72854;PMS7003;60991;51.278;22.550;2023-03-17T02:17:43;114.75;87.75;50.25
72854;PMS7003;60991;51.278;22.550;2023-03-17T02:19:13;124.67;97.33;53.00
72854;PMS7003;60991;51.278;22.550;2023-03-17T02:22:17;97.00;72.00;42.00
72854;PMS7003;60991;51.278;22.550;2023-03-17T02:23:49;109.25;86.25;49.25
72854;PMS7003;60991;51.278;22.550;2023-03-17T02:25:19;107.00;84.50;49.00
72854;PMS7003;60991;51.278;22.550;2023-03-17T02:26:53;112.25;91.00;50.50
72854;PMS7003;60991;51.278;22.550;2023-03-17T02:28:27;109.00;85.50;49.00
72854;PMS7003;60991;51.278;22.550;2023-03-17T02:29:59;113.00;85.75;49.00
72854;PMS7003;60991;51.278;22.550;2023-03-17T02:31:30;108.25;82.25;49.00
72854;PMS7003;60991;51.278;22.550;2023-03-17T02:33:00;110.75;91.00;50.50
72854;PMS7003;60991;51.278;22.550;2023-03-17T02:34:32;109.00;81.50;48.50
72854;PMS7003;60991;51.278;22.550;2023-03-17T02:36:02;110.00;94.25;51.00
72854;PMS7003;60991;51.278;22.550;2023-03-17T02:37:33;102.75;80.50;48.50
72854;PMS7003;60991;51.278;22.550;2023-03-17T02:39:04;103.50;76.50;49.75
72854;PMS7003;60991;51.278;22.550;2023-03-17T02:40:34;105.67;80.33;49.00
72854;PMS7003;60991;51.278;22.550;2023-03-17T02:42:04;101.25;76.75;50.25
72854;PMS7003;60991;51.278;22.550;2023-03-17T02:43:35;112.75;91.75;50.25
72854;PMS7003;60991;51.278;22.550;2023-03-17T02:45:06;108.33;88.00;50.33
72854;PMS7003;60991;51.278;22.550;2023-03-17T02:46:38;112.25;87.25;48.25
72854;PMS7003;60991;51.278;22.550;2023-03-17T02:48:08;109.00;78.33;49.00
72854;PMS7003;60991;51.278;22.550;2023-03-17T02:49:39;112.00;81.67;50.33
72854;PMS7003;60991;51.278;22.550;2023-03-17T02:51:10;109.75;87.50;49.25
72854;PMS7003;60991;51.278;22.550;2023-03-17T02:52:41;108.50;80.75;47.75
72854;PMS7003;60991;51.278;22.550;2023-03-17T02:54:11;103.00;77.67;47.33
72854;PMS7003;60991;51.278;22.550;2023-03-17T02:55:41;99.00;77.33;46.33
72854;PMS7003;60991;51.278;22.550;2023-03-17T02:57:11;113.33;86.67;47.33
72854;PMS7003;60991;51.278;22.550;2023-03-17T02:58:42;105.00;81.33;49.00
72854;PMS7003;60991;51.278;22.550;2023-03-17T03:00:12;114.67;80.33;46.00
72854;PMS7003;60991;51.278;22.550;2023-03-17T03:01:42;106.25;81.25;46.50
72854;PMS7003;60991;51.278;22.550;2023-03-17T03:03:13;111.33;85.67;49.00
72854;PMS7003;60991;51.278;22.550;2023-03-17T03:04:43;108.67;81.00;47.33
72854;PMS7003;60991;51.278;22.550;2023-03-17T03:06:13;103.00;83.50;47.25
72854;PMS7003;60991;51.278;22.550;2023-03-17T03:07:43;106.25;74.75;45.25
72854;PMS7003;60991;51.278;22.550;2023-03-17T03:09:14;96.33;73.33;46.33
72854;PMS7003;60991;51.278;22.550;2023-03-17T03:10:44;102.75;75.25;47.25
72854;PMS7003;60991;51.278;22.550;2023-03-17T03:12:14;103.33;75.67;46.67
72854;PMS7003;60991;51.278;22.550;2023-03-17T03:13:45;92.33;66.00;40.00
72854;PMS7003;60991;51.278;22.550;2023-03-17T03:15:15;101.00;73.00;44.33
72854;PMS7003;60991;51.278;22.550;2023-03-17T03:16:45;104.67;77.67;46.00
72854;PMS7003;60991;51.278;22.550;2023-03-17T03:18:15;96.33;71.00;43.00
72854;PMS7003;60991;51.278;22.550;2023-03-17T03:19:46;97.00;72.00;43.25
72854;PMS7003;60991;51.278;22.550;2023-03-17T03:21:16;101.50;79.50;47.25
72854;PMS7003;60991;51.278;22.550;2023-03-17T03:22:47;104.00;75.50;43.00
72854;PMS7003;60991;51.278;22.550;2023-03-17T03:24:17;103.33;73.00;44.00
72854;PMS7003;60991;51.278;22.550;2023-03-17T03:25:47;98.33;73.33;46.33
72854;PMS7003;60991;51.278;22.550;2023-03-17T03:27:17;95.00;68.67;44.00
72854;PMS7003;60991;51.278;22.550;2023-03-17T03:28:48;96.00;72.50;46.50
72854;PMS7003;60991;51.278;22.550;2023-03-17T03:30:18;106.50;77.00;45.75
72854;PMS7003;60991;51.278;22.550;2023-03-17T03:31:49;95.75;73.75;43.50
72854;PMS7003;60991;51.278;22.550;2023-03-17T03:33:19;99.00;71.00;44.33
72854;PMS7003;60991;51.278;22.550;2023-03-17T03:34:49;96.67;71.67;43.00
72854;PMS7003;60991;51.278;22.550;2023-03-17T03:36:19;96.67;70.67;41.33
72854;PMS7003;60991;51.278;22.550;2023-03-17T03:37:50;91.00;66.75;42.25
72854;PMS7003;60991;51.278;22.550;2023-03-17T03:39:20;102.33;73.33;41.67
72854;PMS7003;60991;51.278;22.550;2023-03-17T03:40:50;95.00;71.67;40.00
72854;PMS7003;60991;51.278;22.550;2023-03-17T03:42:21;95.50;73.25;43.75
72854;PMS7003;60991;51.278;22.550;2023-03-17T03:43:51;92.33;70.00;41.33
72854;PMS7003;60991;51.278;22.550;2023-03-17T03:45:21;99.25;70.25;44.25
72854;PMS7003;60991;51.278;22.550;2023-03-17T03:46:52;99.33;74.33;43.33
72854;PMS7003;60991;51.278;22.550;2023-03-17T03:48:22;100.67;71.67;43.00
72854;PMS7003;60991;51.278;22.550;2023-03-17T03:49:52;96.00;72.00;44.50
72854;PMS7003;60991;51.278;22.550;2023-03-17T03:51:22;96.67;72.00;43.33
72854;PMS7003;60991;51.278;22.550;2023-03-17T03:52:53;97.00;72.00;44.25
72854;PMS7003;60991;51.278;22.550;2023-03-17T03:54:23;92.00;66.33;43.33
72854;PMS7003;60991;51.278;22.550;2023-03-17T03:55:53;93.33;74.00;46.33
72854;PMS7003;60991;51.278;22.550;2023-03-17T03:57:24;91.00;68.50;43.50
72854;PMS7003;60991;51.278;22.550;2023-03-17T03:58:54;100.33;70.33;46.00
72854;PMS7003;60991;51.278;22.550;2023-03-17T04:00:24;98.33;73.00;44.33
72854;PMS7003;60991;51.278;22.550;2023-03-17T04:01:54;98.00;74.00;46.00
72854;PMS7003;60991;51.278;22.550;2023-03-17T04:03:25;103.00;76.67;44.33
72854;PMS7003;60991;51.278;22.550;2023-03-17T04:04:55;102.67;74.00;44.00
72854;PMS7003;60991;51.278;22.550;2023-03-17T04:06:25;91.00;66.33;40.33
72854;PMS7003;60991;51.278;22.550;2023-03-17T04:07:55;90.33;68.00;39.67
72854;PMS7003;60991;51.278;22.550;2023-03-17T04:09:26;87.75;67.75;43.75
72854;PMS7003;60991;51.278;22.550;2023-03-17T04:10:56;89.67;67.67;42.33
72854;PMS7003;60991;51.278;22.550;2023-03-17T04:12:26;88.50;66.50;40.25
72854;PMS7003;60991;51.278;22.550;2023-03-17T04:13:57;92.00;66.33;42.33
72854;PMS7003;60991;51.278;22.550;2023-03-17T04:15:27;94.00;69.33;40.67
72854;PMS7003;60991;51.278;22.550;2023-03-17T04:16:57;88.25;68.00;42.25
72854;PMS7003;60991;51.278;22.550;2023-03-17T04:18:28;88.75;66.50;38.25
72854;PMS7003;60991;51.278;22.550;2023-03-17T04:19:58;83.25;66.50;40.25
72854;PMS7003;60991;51.278;22.550;2023-03-17T04:21:28;85.67;63.67;40.00
72854;PMS7003;60991;51.278;22.550;2023-03-17T04:22:58;89.00;69.33;41.33
72854;PMS7003;60991;51.278;22.550;2023-03-17T04:24:29;88.33;67.67;39.33
72854;PMS7003;60991;51.278;22.550;2023-03-17T04:25:59;85.75;63.75;37.00
72854;PMS7003;60991;51.278;22.550;2023-03-17T04:27:29;78.67;59.33;37.33
72854;PMS7003;60991;51.278;22.550;2023-03-17T04:28:59;83.75;60.00;34.00
72854;PMS7003;60991;51.278;22.550;2023-03-17T04:30:30;76.67;59.67;37.00
72854;PMS7003;60991;51.278;22.550;2023-03-17T04:32:00;87.33;65.67;40.00
72854;PMS7003;60991;51.278;22.550;2023-03-17T04:33:31;77.75;61.75;38.50
72854;PMS7003;60991;51.278;22.550;2023-03-17T04:35:01;88.33;63.67;38.33
72854;PMS7003;60991;51.278;22.550;2023-03-17T04:36:31;81.75;61.50;39.25
72854;PMS7003;60991;51.278;22.550;2023-03-17T04:38:02;85.50;60.00;37.25
72854;PMS7003;60991;51.278;22.550;2023-03-17T04:39:33;76.75;59.25;34.00
72854;PMS7003;60991;51.278;22.550;2023-03-17T04:41:03;82.67;58.00;38.33
72854;PMS7003;60991;51.278;22.550;2023-03-17T04:42:33;76.25;62.25;38.50
72854;PMS7003;60991;51.278;22.550;2023-03-17T04:44:04;84.67;64.00;38.67
72854;PMS7003;60991;51.278;22.550;2023-03-17T04:45:35;73.75;55.75;33.50
72854;PMS7003;60991;51.278;22.550;2023-03-17T04:47:05;76.75;61.00;37.75
72854;PMS7003;60991;51.278;22.550;2023-03-17T04:48:35;71.25;54.00;34.00
72854;PMS7003;60991;51.278;22.550;2023-03-17T04:50:07;79.33;59.33;37.00
72854;PMS7003;60991;51.278;22.550;2023-03-17T04:51:38;75.00;58.75;37.00
72854;PMS7003;60991;51.278;22.550;2023-03-17T04:53:08;51.33;46.00;37.00
72854;PMS7003;60991;51.278;22.550;2023-03-17T04:54:39;87.67;63.67;36.67
72854;PMS7003;60991;51.278;22.550;2023-03-17T04:56:09;70.33;54.67;33.00
72854;PMS7003;60991;51.278;22.550;2023-03-17T04:57:40;80.75;59.50;37.00
72854;PMS7003;60991;51.278;22.550;2023-03-17T04:59:10;73.00;60.00;38.00
72854;PMS7003;60991;51.278;22.550;2023-03-17T05:00:40;74.67;60.33;37.67
72854;PMS7003;60991;51.278;22.550;2023-03-17T05:02:11;83.67;64.67;38.33
72854;PMS7003;60991;51.278;22.550;2023-03-17T05:03:41;85.67;60.00;37.00
72854;PMS7003;60991;51.278;22.550;2023-03-17T05:05:11;67.33;53.67;37.33
72854;PMS7003;60991;51.278;22.550;2023-03-17T05:06:41;71.67;58.67;35.00
72854;PMS7003;60991;51.278;22.550;2023-03-17T05:08:11;79.00;57.25;37.50
72854;PMS7003;60991;51.278;22.550;2023-03-17T05:09:42;84.00;61.33;36.67
72854;PMS7003;60991;51.278;22.550;2023-03-17T05:11:12;71.25;57.25;36.50
72854;PMS7003;60991;51.278;22.550;2023-03-17T05:12:43;78.50;55.50;34.50
72854;PMS7003;60991;51.278;22.550;2023-03-17T05:14:13;80.33;58.67;34.33
72854;PMS7003;60991;51.278;22.550;2023-03-17T05:15:47;69.33;56.00;34.00
72854;PMS7003;60991;51.278;22.550;2023-03-17T05:17:21;70.75;55.00;35.25
72854;PMS7003;60991;51.278;22.550;2023-03-17T05:18:51;70.67;52.00;32.67
72854;PMS7003;60991;51.278;22.550;2023-03-17T05:20:22;69.50;52.50;32.50
72854;PMS7003;60991;51.278;22.550;2023-03-17T05:21:52;68.67;50.67;31.33
72854;PMS7003;60991;51.278;22.550;2023-03-17T05:23:22;67.25;51.75;34.25
72854;PMS7003;60991;51.278;22.550;2023-03-17T05:24:52;69.67;50.67;31.67
72854;PMS7003;60991;51.278;22.550;2023-03-17T05:26:22;59.33;48.00;33.00
72854;PMS7003;60991;51.278;22.550;2023-03-17T05:27:53;64.00;48.67;31.67
72854;PMS7003;60991;51.278;22.550;2023-03-17T05:29:23;64.00;47.00;30.00
72854;PMS7003;60991;51.278;22.550;2023-03-17T05:30:53;66.00;51.67;34.33
72854;PMS7003;60991;51.278;22.550;2023-03-17T05:32:24;65.75;50.75;31.50
72854;PMS7003;60991;51.278;22.550;2023-03-17T05:33:54;65.67;51.67;31.33
72854;PMS7003;60991;51.278;22.550;2023-03-17T05:35:24;66.00;53.00;34.00
72854;PMS7003;60991;51.278;22.550;2023-03-17T05:36:55;68.75;54.75;34.50
72854;PMS7003;60991;51.278;22.550;2023-03-17T05:38:25;77.75;58.25;38.25
72854;PMS7003;60991;51.278;22.550;2023-03-17T05:39:55;77.00;57.00;36.00
72854;PMS7003;60991;51.278;22.550;2023-03-17T05:41:25;79.67;58.33;35.00
72854;PMS7003;60991;51.278;22.550;2023-03-17T05:42:55;80.33;56.00;34.00
72854;PMS7003;60991;51.278;22.550;2023-03-17T05:44:26;87.00;61.00;37.33
72854;PMS7003;60991;51.278;22.550;2023-03-17T05:45:56;70.33;47.00;26.33
72854;PMS7003;60991;51.278;22.550;2023-03-17T05:47:26;73.75;54.75;32.25
72854;PMS7003;60991;51.278;22.550;2023-03-17T05:48:57;79.75;57.75;34.25
72854;PMS7003;60991;51.278;22.550;2023-03-17T05:50:27;75.00;52.67;36.67
72854;PMS7003;60991;51.278;22.550;2023-03-17T05:51:57;68.67;56.00;38.33
72854;PMS7003;60991;51.278;22.550;2023-03-17T05:53:28;74.33;59.00;37.33
72854;PMS7003;60991;51.278;22.550;2023-03-17T05:54:58;86.25;63.25;38.25
72854;PMS7003;60991;51.278;22.550;2023-03-17T05:56:28;74.67;57.33;36.67
72854;PMS7003;60991;51.278;22.550;2023-03-17T05:57:58;77.33;60.00;38.33
72854;PMS7003;60991;51.278;22.550;2023-03-17T05:59:28;75.33;56.67;36.67
72854;PMS7003;60991;51.278;22.550;2023-03-17T06:00:59;72.67;57.33;37.00
72854;PMS7003;60991;51.278;22.550;2023-03-17T06:02:29;67.25;55.75;36.25
72854;PMS7003;60991;51.278;22.550;2023-03-17T06:04:00;70.50;55.00;36.00
72854;PMS7003;60991;51.278;22.550;2023-03-17T06:05:30;76.67;56.33;35.00
72854;PMS7003;60991;51.278;22.550;2023-03-17T06:07:00;65.75;51.75;33.00
72854;PMS7003;60991;51.278;22.550;2023-03-17T06:08:31;73.25;56.25;34.00
72854;PMS7003;60991;51.278;22.550;2023-03-17T06:10:01;68.33;55.67;34.67
72854;PMS7003;60991;51.278;22.550;2023-03-17T06:11:32;52.75;43.50;31.00
72854;PMS7003;60991;51.278;22.550;2023-03-17T06:13:02;56.25;47.50;31.00
72854;PMS7003;60991;51.278;22.550;2023-03-17T06:14:33;65.33;50.67;33.33
72854;PMS7003;60991;51.278;22.550;2023-03-17T06:16:03;64.75;49.25;30.00
72854;PMS7003;60991;51.278;22.550;2023-03-17T06:17:34;47.25;43.75;29.25
72854;PMS7003;60991;51.278;22.550;2023-03-17T06:19:05;51.50;41.25;28.00
72854;PMS7003;60991;51.278;22.550;2023-03-17T06:20:35;58.00;46.00;31.00
72854;PMS7003;60991;51.278;22.550;2023-03-17T06:22:05;55.33;41.67;28.00
72854;PMS7003;60991;51.278;22.550;2023-03-17T06:23:36;59.50;47.50;31.00
72854;PMS7003;60991;51.278;22.550;2023-03-17T06:25:06;59.50;46.00;31.00
72854;PMS7003;60991;51.278;22.550;2023-03-17T06:26:37;54.25;44.00;28.25
72854;PMS7003;60991;51.278;22.550;2023-03-17T06:28:07;55.25;44.00;31.00
72854;PMS7003;60991;51.278;22.550;2023-03-17T06:29:38;57.50;43.75;30.25
72854;PMS7003;60991;51.278;22.550;2023-03-17T06:31:08;53.00;42.00;28.33
72854;PMS7003;60991;51.278;22.550;2023-03-17T06:32:38;57.33;39.67;29.00
72854;PMS7003;60991;51.278;22.550;2023-03-17T06:34:08;50.00;39.00;28.00
72854;PMS7003;60991;51.278;22.550;2023-03-17T06:35:38;35.33;34.33;27.33
72854;PMS7003;60991;51.278;22.550;2023-03-17T06:37:09;41.25;37.75;25.25
72854;PMS7003;60991;51.278;22.550;2023-03-17T06:38:39;54.00;40.00;27.33
72854;PMS7003;60991;51.278;22.550;2023-03-17T06:40:10;38.33;34.67;26.00
72854;PMS7003;60991;51.278;22.550;2023-03-17T06:41:41;37.00;33.50;25.00
72854;PMS7003;60991;51.278;22.550;2023-03-17T06:43:11;44.00;39.67;26.67
72854;PMS7003;60991;51.278;22.550;2023-03-17T06:44:41;41.33;37.67;23.00
72854;PMS7003;60991;51.278;22.550;2023-03-17T06:46:11;45.67;40.00;23.67
72854;PMS7003;60991;51.278;22.550;2023-03-17T06:47:41;39.67;33.67;24.33
72854;PMS7003;60991;51.278;22.550;2023-03-17T06:49:12;40.67;31.33;22.33
72854;PMS7003;60991;51.278;22.550;2023-03-17T06:50:42;38.50;30.25;24.25
72854;PMS7003;60991;51.278;22.550;2023-03-17T06:52:12;31.33;27.67;22.33
72854;PMS7003;60991;51.278;22.550;2023-03-17T06:53:42;32.67;32.00;24.33
72854;PMS7003;60991;51.278;22.550;2023-03-17T06:55:13;37.00;30.75;23.00
72854;PMS7003;60991;51.278;22.550;2023-03-17T06:56:43;33.25;30.00;20.25
72854;PMS7003;60991;51.278;22.550;2023-03-17T06:58:13;38.00;33.00;20.33
72854;PMS7003;60991;51.278;22.550;2023-03-17T06:59:43;39.67;34.00;23.00
72854;PMS7003;60991;51.278;22.550;2023-03-17T07:01:13;39.67;30.33;22.67
72854;PMS7003;60991;51.278;22.550;2023-03-17T07:02:44;33.50;27.75;21.00
72854;PMS7003;60991;51.278;22.550;2023-03-17T07:04:14;34.00;26.25;23.50
72854;PMS7003;60991;51.278;22.550;2023-03-17T07:05:45;39.00;33.75;22.75
72854;PMS7003;60991;51.278;22.550;2023-03-17T07:07:15;33.00;26.75;21.75
72854;PMS7003;60991;51.278;22.550;2023-03-17T07:08:45;30.00;26.00;16.67
72854;PMS7003;60991;51.278;22.550;2023-03-17T07:10:15;39.00;36.00;21.33
72854;PMS7003;60991;51.278;22.550;2023-03-17T07:11:46;44.75;34.75;22.75
72854;PMS7003;60991;51.278;22.550;2023-03-17T07:13:16;47.67;37.33;25.67
72854;PMS7003;60991;51.278;22.550;2023-03-17T07:14:46;35.33;33.33;25.00
72854;PMS7003;60991;51.278;22.550;2023-03-17T07:16:16;37.00;32.00;23.00
72854;PMS7003;60991;51.278;22.550;2023-03-17T07:17:47;30.00;17.25;11.50
72854;PMS7003;60991;51.278;22.550;2023-03-17T07:19:17;28.00;27.67;20.00
72854;PMS7003;60991;51.278;22.550;2023-03-17T07:20:47;32.33;27.00;21.33
72854;PMS7003;60991;51.278;22.550;2023-03-17T07:22:18;25.00;22.33;16.67
72854;PMS7003;60991;51.278;22.550;2023-03-17T07:23:48;31.50;26.25;16.50
72854;PMS7003;60991;51.278;22.550;2023-03-17T07:25:18;35.33;30.00;19.67
72854;PMS7003;60991;51.278;22.550;2023-03-17T07:26:48;34.67;26.67;17.00
72854;PMS7003;60991;51.278;22.550;2023-03-17T07:28:18;35.75;26.75;19.25
72854;PMS7003;60991;51.278;22.550;2023-03-17T07:29:49;37.75;31.50;22.75
72854;PMS7003;60991;51.278;22.550;2023-03-17T07:31:19;41.25;31.00;22.25
72854;PMS7003;60991;51.278;22.550;2023-03-17T07:32:49;39.00;36.67;24.00
72854;PMS7003;60991;51.278;22.550;2023-03-17T07:34:20;45.00;36.67;24.67
72854;PMS7003;60991;51.278;22.550;2023-03-17T07:35:50;42.33;33.33;22.33
72854;PMS7003;60991;51.278;22.550;2023-03-17T07:37:20;39.00;32.25;22.50
72854;PMS7003;60991;51.278;22.550;2023-03-17T07:38:51;40.50;31.50;23.75
72854;PMS7003;60991;51.278;22.550;2023-03-17T07:40:21;39.00;36.00;20.67
72854;PMS7003;60991;51.278;22.550;2023-03-17T07:41:51;38.33;32.00;23.67
72854;PMS7003;60991;51.278;22.550;2023-03-17T07:43:21;44.50;38.00;25.25
72854;PMS7003;60991;51.278;22.550;2023-03-17T07:44:52;41.00;32.67;24.00
72854;PMS7003;60991;51.278;22.550;2023-03-17T07:46:22;52.00;41.00;25.33
72854;PMS7003;60991;51.278;22.550;2023-03-17T07:47:52;40.50;33.75;25.25
72854;PMS7003;60991;51.278;22.550;2023-03-17T07:49:23;34.00;27.67;22.67
72854;PMS7003;60991;51.278;22.550;2023-03-17T07:50:53;45.75;36.25;22.75
72854;PMS7003;60991;51.278;22.550;2023-03-17T07:52:23;31.00;19.67;11.33
72854;PMS7003;60991;51.278;22.550;2023-03-17T07:53:53;47.33;37.67;24.00
72854;PMS7003;60991;51.278;22.550;2023-03-17T07:55:24;41.25;32.50;20.50
72854;PMS7003;60991;51.278;22.550;2023-03-17T07:56:54;34.25;29.25;22.50
72854;PMS7003;60991;51.278;22.550;2023-03-17T07:58:25;35.50;27.75;17.50
72854;PMS7003;60991;51.278;22.550;2023-03-17T07:59:55;19.67;16.00;14.33
72854;PMS7003;60991;51.278;22.550;2023-03-17T08:01:25;26.67;21.00;16.00
72854;PMS7003;60991;51.278;22.550;2023-03-17T08:02:57;23.00;19.00;16.00
72854;PMS7003;60991;51.278;22.550;2023-03-17T08:04:27;23.00;17.00;13.00
72854;PMS7003;60991;51.278;22.550;2023-03-17T08:05:57;16.75;15.75;12.00
72854;PMS7003;60991;51.278;22.550;2023-03-17T08:07:28;17.75;14.00;12.00
72854;PMS7003;60991;51.278;22.550;2023-03-17T08:08:59;16.25;13.25;10.25
72854;PMS7003;60991;51.278;22.550;2023-03-17T08:10:29;11.00;10.00;9.00
72854;PMS7003;60991;51.278;22.550;2023-03-17T08:11:59;15.75;9.50;8.50
72854;PMS7003;60991;51.278;22.550;2023-03-17T08:13:30;13.00;10.67;8.00
72854;PMS7003;60991;51.278;22.550;2023-03-17T08:15:01;15.00;11.00;6.50
72854;PMS7003;60991;51.278;22.550;2023-03-17T08:16:31;10.75;9.25;8.00
72854;PMS7003;60991;51.278;22.550;2023-03-17T08:18:01;12.00;8.25;5.25
72854;PMS7003;60991;51.278;22.550;2023-03-17T08:19:32;11.50;9.00;9.00
72854;PMS7003;60991;51.278;22.550;2023-03-17T08:21:02;8.25;7.00;5.00
72854;PMS7003;60991;51.278;22.550;2023-03-17T08:22:34;7.50;6.00;5.00
72854;PMS7003;60991;51.278;22.550;2023-03-17T08:24:04;12.50;9.25;7.75
72854;PMS7003;60991;51.278;22.550;2023-03-17T08:25:34;16.25;11.25;8.00
72854;PMS7003;60991;51.278;22.550;2023-03-17T08:27:05;11.75;9.75;8.00
72854;PMS7003;60991;51.278;22.550;2023-03-17T08:28:35;11.75;7.25;5.50